sensor_id;sensor_type;location;lat;lon;timestamp;temperature;humidity
6106;DHT22;3083;51.508;7.966;2023-11-19T00:01:46;9.50;99.90
6106;DHT22;3083;51.508;7.966;2023-11-19T00:04:13;9.50;99.90
6106;DHT22;3083;51.508;7.966;2023-11-19T00:06:41;9.50;99.90
6106;DHT22;3083;51.508;7.966;2023-11-19T00:09:08;9.50;99.90
6106;DHT22;3083;51.508;7.966;2023-11-19T00:11:35;9.50;99.90
6106;DHT22;3083;51.508;7.966;2023-11-19T00:14:02;9.50;99.90
6106;DHT22;3083;51.508;7.966;2023-11-19T00:16:29;9.50;99.90
6106;DHT22;3083;51.508;7.966;2023-11-19T00:18:57;9.50;99.90
6106;DHT22;3083;51.508;7.966;2023-11-19T00:21:25;9.50;99.90
6106;DHT22;3083;51.508;7.966;2023-11-19T00:23:55;9.60;99.90
6106;DHT22;3083;51.508;7.966;2023-11-19T00:26:24;9.60;99.90
6106;DHT22;3083;51.508;7.966;2023-11-19T00:28:50;9.60;99.90
6106;DHT22;3083;51.508;7.966;2023-11-19T00:31:18;9.60;99.90
6106;DHT22;3083;51.508;7.966;2023-11-19T00:33:45;9.60;99.90
6106;DHT22;3083;51.508;7.966;2023-11-19T00:36:12;9.70;99.90
6106;DHT22;3083;51.508;7.966;2023-11-19T00:38:38;9.70;99.90
6106;DHT22;3083;51.508;7.966;2023-11-19T00:41:07;9.70;99.90
6106;DHT22;3083;51.508;7.966;2023-11-19T00:43:33;9.80;99.90
6106;DHT22;3083;51.508;7.966;2023-11-19T00:46:01;9.80;99.90
6106;DHT22;3083;51.508;7.966;2023-11-19T00:48:28;9.80;99.90
6106;DHT22;3083;51.508;7.966;2023-11-19T00:50:55;9.80;99.90
6106;DHT22;3083;51.508;7.966;2023-11-19T00:53:22;9.80;99.90
6106;DHT22;3083;51.508;7.966;2023-11-19T00:55:49;9.90;99.90
6106;DHT22;3083;51.508;7.966;2023-11-19T00:58:17;9.90;99.90
6106;DHT22;3083;51.508;7.966;2023-11-19T01:00:44;9.90;99.90
6106;DHT22;3083;51.508;7.966;2023-11-19T01:03:11;10.00;99.90
6106;DHT22;3083;51.508;7.966;2023-11-19T01:05:38;10.00;99.90
6106;DHT22;3083;51.508;7.966;2023-11-19T01:08:04;10.00;99.90
6106;DHT22;3083;51.508;7.966;2023-11-19T01:10:32;10.10;99.90
6106;DHT22;3083;51.508;7.966;2023-11-19T01:12:59;10.10;99.90
6106;DHT22;3083;51.508;7.966;2023-11-19T01:15:27;10.20;99.90
6106;DHT22;3083;51.508;7.966;2023-11-19T01:17:54;10.30;99.90
6106;DHT22;3083;51.508;7.966;2023-11-19T01:20:21;10.30;99.90
6106;DHT22;3083;51.508;7.966;2023-11-19T01:22:48;10.40;99.90
6106;DHT22;3083;51.508;7.966;2023-11-19T01:25:15;10.40;99.90
6106;DHT22;3083;51.508;7.966;2023-11-19T01:27:42;10.40;99.90
6106;DHT22;3083;51.508;7.966;2023-11-19T01:30:10;10.50;99.90
6106;DHT22;3083;51.508;7.966;2023-11-19T01:32:40;10.60;99.90
6106;DHT22;3083;51.508;7.966;2023-11-19T01:35:07;10.60;99.90
6106;DHT22;3083;51.508;7.966;2023-11-19T01:37:34;10.70;99.90
6106;DHT22;3083;51.508;7.966;2023-11-19T01:40:02;10.80;99.90
6106;DHT22;3083;51.508;7.966;2023-11-19T01:42:30;10.80;99.90
6106;DHT22;3083;51.508;7.966;2023-11-19T01:45:02;10.80;99.90
6106;DHT22;3083;51.508;7.966;2023-11-19T01:47:32;10.80;99.90
6106;DHT22;3083;51.508;7.966;2023-11-19T01:50:01;10.90;99.90
6106;DHT22;3083;51.508;7.966;2023-11-19T01:52:33;11.00;99.90
6106;DHT22;3083;51.508;7.966;2023-11-19T01:55:02;11.00;99.90
6106;DHT22;3083;51.508;7.966;2023-11-19T01:57:30;11.00;99.90
6106;DHT22;3083;51.508;7.966;2023-11-19T01:59:56;11.10;99.90
6106;DHT22;3083;51.508;7.966;2023-11-19T02:02:24;11.10;99.90
6106;DHT22;3083;51.508;7.966;2023-11-19T02:04:52;11.10;99.90
6106;DHT22;3083;51.508;7.966;2023-11-19T02:07:20;11.10;99.90
6106;DHT22;3083;51.508;7.966;2023-11-19T02:09:47;11.10;99.90
6106;DHT22;3083;51.508;7.966;2023-11-19T02:12:14;11.10;99.90
6106;DHT22;3083;51.508;7.966;2023-11-19T02:14:41;11.20;99.90
6106;DHT22;3083;51.508;7.966;2023-11-19T02:17:25;11.20;99.90
6106;DHT22;3083;51.508;7.966;2023-11-19T02:19:52;11.20;99.90
6106;DHT22;3083;51.508;7.966;2023-11-19T02:22:20;11.20;99.90
6106;DHT22;3083;51.508;7.966;2023-11-19T02:24:51;11.20;99.90
6106;DHT22;3083;51.508;7.966;2023-11-19T02:27:24;11.20;99.90
6106;DHT22;3083;51.508;7.966;2023-11-19T02:29:55;11.20;99.90
6106;DHT22;3083;51.508;7.966;2023-11-19T02:32:23;11.20;99.90
6106;DHT22;3083;51.508;7.966;2023-11-19T02:34:51;11.20;99.90
6106;DHT22;3083;51.508;7.966;2023-11-19T02:37:18;11.20;99.90
6106;DHT22;3083;51.508;7.966;2023-11-19T02:39:45;11.20;99.90
6106;DHT22;3083;51.508;7.966;2023-11-19T02:42:12;11.20;99.90
6106;DHT22;3083;51.508;7.966;2023-11-19T02:44:43;11.20;99.90
6106;DHT22;3083;51.508;7.966;2023-11-19T02:47:12;11.20;99.90
6106;DHT22;3083;51.508;7.966;2023-11-19T02:49:38;11.20;99.90
6106;DHT22;3083;51.508;7.966;2023-11-19T02:52:06;11.30;99.90
6106;DHT22;3083;51.508;7.966;2023-11-19T02:54:36;11.20;99.90
6106;DHT22;3083;51.508;7.966;2023-11-19T02:57:03;11.30;99.90
6106;DHT22;3083;51.508;7.966;2023-11-19T02:59:30;11.30;99.90
6106;DHT22;3083;51.508;7.966;2023-11-19T03:02:04;11.30;99.90
6106;DHT22;3083;51.508;7.966;2023-11-19T03:04:33;11.30;99.90
6106;DHT22;3083;51.508;7.966;2023-11-19T03:07:00;11.30;99.90
6106;DHT22;3083;51.508;7.966;2023-11-19T03:09:27;11.30;99.90
6106;DHT22;3083;51.508;7.966;2023-11-19T03:11:55;11.30;99.90
6106;DHT22;3083;51.508;7.966;2023-11-19T03:14:21;11.30;99.90
6106;DHT22;3083;51.508;7.966;2023-11-19T03:16:49;11.30;99.90
6106;DHT22;3083;51.508;7.966;2023-11-19T03:19:16;11.30;99.90
6106;DHT22;3083;51.508;7.966;2023-11-19T03:21:44;11.30;99.90
6106;DHT22;3083;51.508;7.966;2023-11-19T03:24:13;11.30;99.90
6106;DHT22;3083;51.508;7.966;2023-11-19T03:26:41;11.30;99.90
6106;DHT22;3083;51.508;7.966;2023-11-19T03:29:08;11.30;99.90
6106;DHT22;3083;51.508;7.966;2023-11-19T03:31:35;11.40;99.90
6106;DHT22;3083;51.508;7.966;2023-11-19T03:34:02;11.40;99.90
6106;DHT22;3083;51.508;7.966;2023-11-19T03:36:32;11.40;99.90
6106;DHT22;3083;51.508;7.966;2023-11-19T03:39:00;11.50;99.90
6106;DHT22;3083;51.508;7.966;2023-11-19T03:41:28;11.50;99.90
6106;DHT22;3083;51.508;7.966;2023-11-19T03:43:56;11.50;99.90
6106;DHT22;3083;51.508;7.966;2023-11-19T03:46:23;11.50;99.90
6106;DHT22;3083;51.508;7.966;2023-11-19T03:48:50;11.50;99.90
6106;DHT22;3083;51.508;7.966;2023-11-19T03:51:17;11.60;99.90
6106;DHT22;3083;51.508;7.966;2023-11-19T03:53:44;11.60;99.90
6106;DHT22;3083;51.508;7.966;2023-11-19T03:56:12;11.60;99.90
6106;DHT22;3083;51.508;7.966;2023-11-19T03:58:40;11.70;99.90
6106;DHT22;3083;51.508;7.966;2023-11-19T04:01:11;11.70;99.90
6106;DHT22;3083;51.508;7.966;2023-11-19T04:03:38;11.70;99.90
6106;DHT22;3083;51.508;7.966;2023-11-19T04:06:05;11.70;99.90
6106;DHT22;3083;51.508;7.966;2023-11-19T04:08:32;11.80;99.90
6106;DHT22;3083;51.508;7.966;2023-11-19T04:11:01;11.80;99.90
6106;DHT22;3083;51.508;7.966;2023-11-19T04:13:29;11.80;99.90
6106;DHT22;3083;51.508;7.966;2023-11-19T04:15:56;11.80;99.90
6106;DHT22;3083;51.508;7.966;2023-11-19T04:18:23;11.80;99.90
6106;DHT22;3083;51.508;7.966;2023-11-19T04:20:51;11.90;99.90
6106;DHT22;3083;51.508;7.966;2023-11-19T04:23:18;11.80;99.90
6106;DHT22;3083;51.508;7.966;2023-11-19T04:25:45;11.80;99.90
6106;DHT22;3083;51.508;7.966;2023-11-19T04:28:11;11.80;99.90
6106;DHT22;3083;51.508;7.966;2023-11-19T04:30:40;11.80;99.90
6106;DHT22;3083;51.508;7.966;2023-11-19T04:33:06;11.80;99.90
6106;DHT22;3083;51.508;7.966;2023-11-19T04:35:33;11.80;99.90
6106;DHT22;3083;51.508;7.966;2023-11-19T04:38:00;11.70;99.90
6106;DHT22;3083;51.508;7.966;2023-11-19T04:40:27;11.70;99.90
6106;DHT22;3083;51.508;7.966;2023-11-19T04:42:54;11.60;99.90
6106;DHT22;3083;51.508;7.966;2023-11-19T04:45:21;11.60;99.90
6106;DHT22;3083;51.508;7.966;2023-11-19T04:47:49;11.60;99.90
6106;DHT22;3083;51.508;7.966;2023-11-19T04:50:16;11.50;99.90
6106;DHT22;3083;51.508;7.966;2023-11-19T04:52:43;11.50;99.90
6106;DHT22;3083;51.508;7.966;2023-11-19T04:55:10;11.50;99.90
6106;DHT22;3083;51.508;7.966;2023-11-19T04:57:39;11.50;99.90
6106;DHT22;3083;51.508;7.966;2023-11-19T05:00:07;11.50;99.90
6106;DHT22;3083;51.508;7.966;2023-11-19T05:02:36;11.50;99.90
6106;DHT22;3083;51.508;7.966;2023-11-19T05:05:06;11.50;99.90
6106;DHT22;3083;51.508;7.966;2023-11-19T05:07:33;11.50;99.90
6106;DHT22;3083;51.508;7.966;2023-11-19T05:09:59;11.40;99.90
6106;DHT22;3083;51.508;7.966;2023-11-19T05:12:26;11.50;99.90
6106;DHT22;3083;51.508;7.966;2023-11-19T05:14:53;11.50;99.90
6106;DHT22;3083;51.508;7.966;2023-11-19T05:17:20;11.40;99.90
6106;DHT22;3083;51.508;7.966;2023-11-19T05:19:47;11.40;99.90
6106;DHT22;3083;51.508;7.966;2023-11-19T05:22:16;11.40;99.90
6106;DHT22;3083;51.508;7.966;2023-11-19T05:24:43;11.40;99.90
6106;DHT22;3083;51.508;7.966;2023-11-19T05:27:10;11.40;99.90
6106;DHT22;3083;51.508;7.966;2023-11-19T05:29:39;11.30;99.90
6106;DHT22;3083;51.508;7.966;2023-11-19T05:32:06;11.30;99.90
6106;DHT22;3083;51.508;7.966;2023-11-19T05:34:33;11.30;99.90
6106;DHT22;3083;51.508;7.966;2023-11-19T05:37:00;11.20;99.90
6106;DHT22;3083;51.508;7.966;2023-11-19T05:39:29;11.20;99.90
6106;DHT22;3083;51.508;7.966;2023-11-19T05:41:55;11.20;99.90
6106;DHT22;3083;51.508;7.966;2023-11-19T05:44:22;11.30;99.90
6106;DHT22;3083;51.508;7.966;2023-11-19T05:46:49;11.30;99.90
6106;DHT22;3083;51.508;7.966;2023-11-19T05:49:16;11.30;99.90
6106;DHT22;3083;51.508;7.966;2023-11-19T05:51:43;11.30;99.90
6106;DHT22;3083;51.508;7.966;2023-11-19T05:54:11;11.30;99.90
6106;DHT22;3083;51.508;7.966;2023-11-19T05:56:40;11.30;99.90
6106;DHT22;3083;51.508;7.966;2023-11-19T05:59:07;11.30;99.90
6106;DHT22;3083;51.508;7.966;2023-11-19T06:01:40;11.30;99.90
6106;DHT22;3083;51.508;7.966;2023-11-19T06:04:08;11.30;99.90
6106;DHT22;3083;51.508;7.966;2023-11-19T06:06:35;11.30;99.90
6106;DHT22;3083;51.508;7.966;2023-11-19T06:09:02;11.30;99.90
6106;DHT22;3083;51.508;7.966;2023-11-19T06:11:32;11.30;99.90
6106;DHT22;3083;51.508;7.966;2023-11-19T06:14:00;11.20;99.90
6106;DHT22;3083;51.508;7.966;2023-11-19T06:16:27;11.20;99.90
6106;DHT22;3083;51.508;7.966;2023-11-19T06:18:53;11.20;99.90
6106;DHT22;3083;51.508;7.966;2023-11-19T06:21:20;11.20;99.90
6106;DHT22;3083;51.508;7.966;2023-11-19T06:23:47;11.30;99.90
6106;DHT22;3083;51.508;7.966;2023-11-19T06:26:14;11.20;99.90
6106;DHT22;3083;51.508;7.966;2023-11-19T06:28:41;11.20;99.90
6106;DHT22;3083;51.508;7.966;2023-11-19T06:31:09;11.30;99.90
6106;DHT22;3083;51.508;7.966;2023-11-19T06:33:36;11.20;99.90
6106;DHT22;3083;51.508;7.966;2023-11-19T06:36:04;11.20;99.90
6106;DHT22;3083;51.508;7.966;2023-11-19T06:38:30;11.20;99.90
6106;DHT22;3083;51.508;7.966;2023-11-19T06:40:57;11.30;99.90
6106;DHT22;3083;51.508;7.966;2023-11-19T06:43:24;11.30;99.90
6106;DHT22;3083;51.508;7.966;2023-11-19T06:45:51;11.30;99.90
6106;DHT22;3083;51.508;7.966;2023-11-19T06:48:20;11.40;99.90
6106;DHT22;3083;51.508;7.966;2023-11-19T06:50:47;11.40;99.90
6106;DHT22;3083;51.508;7.966;2023-11-19T06:53:14;11.40;99.90
6106;DHT22;3083;51.508;7.966;2023-11-19T06:55:41;11.40;99.90
6106;DHT22;3083;51.508;7.966;2023-11-19T06:58:08;11.40;99.90
6106;DHT22;3083;51.508;7.966;2023-11-19T07:00:34;11.40;99.90
6106;DHT22;3083;51.508;7.966;2023-11-19T07:03:02;11.30;99.90
6106;DHT22;3083;51.508;7.966;2023-11-19T07:05:30;11.30;99.90
6106;DHT22;3083;51.508;7.966;2023-11-19T07:07:57;11.30;99.90
6106;DHT22;3083;51.508;7.966;2023-11-19T07:10:23;11.20;99.90
6106;DHT22;3083;51.508;7.966;2023-11-19T07:12:50;11.20;99.90
6106;DHT22;3083;51.508;7.966;2023-11-19T07:15:16;11.20;99.90
6106;DHT22;3083;51.508;7.966;2023-11-19T07:17:44;11.20;99.90
6106;DHT22;3083;51.508;7.966;2023-11-19T07:20:11;11.10;99.90
6106;DHT22;3083;51.508;7.966;2023-11-19T07:22:43;11.20;99.90
6106;DHT22;3083;51.508;7.966;2023-11-19T07:25:12;11.20;99.90
6106;DHT22;3083;51.508;7.966;2023-11-19T07:27:39;11.20;99.90
6106;DHT22;3083;51.508;7.966;2023-11-19T07:30:07;11.30;99.90
6106;DHT22;3083;51.508;7.966;2023-11-19T07:32:33;11.30;99.90
6106;DHT22;3083;51.508;7.966;2023-11-19T07:35:00;11.30;99.90
6106;DHT22;3083;51.508;7.966;2023-11-19T07:37:28;11.30;99.90
6106;DHT22;3083;51.508;7.966;2023-11-19T07:39:56;11.30;99.90
6106;DHT22;3083;51.508;7.966;2023-11-19T07:42:23;11.30;99.90
6106;DHT22;3083;51.508;7.966;2023-11-19T07:44:50;11.30;99.90
6106;DHT22;3083;51.508;7.966;2023-11-19T07:47:16;11.30;99.90
6106;DHT22;3083;51.508;7.966;2023-11-19T07:49:43;11.30;99.90
6106;DHT22;3083;51.508;7.966;2023-11-19T07:52:10;11.30;99.90
6106;DHT22;3083;51.508;7.966;2023-11-19T07:54:37;11.30;99.90
6106;DHT22;3083;51.508;7.966;2023-11-19T07:57:05;11.40;99.90
6106;DHT22;3083;51.508;7.966;2023-11-19T07:59:32;11.40;99.90
6106;DHT22;3083;51.508;7.966;2023-11-19T08:01:59;11.40;99.90
6106;DHT22;3083;51.508;7.966;2023-11-19T08:04:26;11.40;99.90
6106;DHT22;3083;51.508;7.966;2023-11-19T08:06:52;11.40;99.90
6106;DHT22;3083;51.508;7.966;2023-11-19T08:09:19;11.40;99.90
6106;DHT22;3083;51.508;7.966;2023-11-19T08:11:46;11.40;99.90
6106;DHT22;3083;51.508;7.966;2023-11-19T08:14:15;11.40;99.90
6106;DHT22;3083;51.508;7.966;2023-11-19T08:16:41;11.40;99.90
6106;DHT22;3083;51.508;7.966;2023-11-19T08:19:08;11.40;99.90
6106;DHT22;3083;51.508;7.966;2023-11-19T08:21:35;11.40;99.90
6106;DHT22;3083;51.508;7.966;2023-11-19T08:24:02;11.50;99.90
6106;DHT22;3083;51.508;7.966;2023-11-19T08:26:29;11.50;99.90
6106;DHT22;3083;51.508;7.966;2023-11-19T08:28:56;11.50;99.90
6106;DHT22;3083;51.508;7.966;2023-11-19T08:31:24;11.40;99.90
6106;DHT22;3083;51.508;7.966;2023-11-19T08:33:51;11.40;99.90
6106;DHT22;3083;51.508;7.966;2023-11-19T08:36:18;11.40;99.90
6106;DHT22;3083;51.508;7.966;2023-11-19T08:38:45;11.40;99.90
6106;DHT22;3083;51.508;7.966;2023-11-19T08:41:13;11.50;99.90
6106;DHT22;3083;51.508;7.966;2023-11-19T08:43:40;11.50;99.90
6106;DHT22;3083;51.508;7.966;2023-11-19T08:46:09;11.50;99.90
6106;DHT22;3083;51.508;7.966;2023-11-19T08:48:38;11.50;99.90
6106;DHT22;3083;51.508;7.966;2023-11-19T08:51:05;11.60;99.90
6106;DHT22;3083;51.508;7.966;2023-11-19T08:53:32;11.60;99.90
6106;DHT22;3083;51.508;7.966;2023-11-19T08:55:59;11.60;99.90
6106;DHT22;3083;51.508;7.966;2023-11-19T08:58:26;11.60;99.90
6106;DHT22;3083;51.508;7.966;2023-11-19T09:00:52;11.60;99.90
6106;DHT22;3083;51.508;7.966;2023-11-19T09:03:19;11.60;99.90
6106;DHT22;3083;51.508;7.966;2023-11-19T09:05:48;11.70;99.90
6106;DHT22;3083;51.508;7.966;2023-11-19T09:08:15;11.70;99.90
6106;DHT22;3083;51.508;7.966;2023-11-19T09:10:42;11.70;99.90
6106;DHT22;3083;51.508;7.966;2023-11-19T09:13:09;11.70;99.90
6106;DHT22;3083;51.508;7.966;2023-11-19T09:15:36;11.70;99.90
6106;DHT22;3083;51.508;7.966;2023-11-19T09:18:03;11.70;99.90
6106;DHT22;3083;51.508;7.966;2023-11-19T09:20:30;11.70;99.90
6106;DHT22;3083;51.508;7.966;2023-11-19T09:23:04;11.70;99.90
6106;DHT22;3083;51.508;7.966;2023-11-19T09:25:33;11.80;99.90
6106;DHT22;3083;51.508;7.966;2023-11-19T09:28:02;11.80;99.90
6106;DHT22;3083;51.508;7.966;2023-11-19T09:30:29;11.80;99.90
6106;DHT22;3083;51.508;7.966;2023-11-19T09:32:56;11.90;99.90
6106;DHT22;3083;51.508;7.966;2023-11-19T09:35:23;11.90;99.90
6106;DHT22;3083;51.508;7.966;2023-11-19T09:37:50;11.90;99.90
6106;DHT22;3083;51.508;7.966;2023-11-19T09:40:19;11.90;99.90
6106;DHT22;3083;51.508;7.966;2023-11-19T09:42:47;11.90;99.90
6106;DHT22;3083;51.508;7.966;2023-11-19T09:45:16;11.90;99.90
6106;DHT22;3083;51.508;7.966;2023-11-19T09:47:44;11.90;99.90
6106;DHT22;3083;51.508;7.966;2023-11-19T09:50:15;11.90;99.90
6106;DHT22;3083;51.508;7.966;2023-11-19T09:52:43;11.90;99.90
6106;DHT22;3083;51.508;7.966;2023-11-19T09:55:10;11.90;99.90
6106;DHT22;3083;51.508;7.966;2023-11-19T09:57:39;12.00;99.90
6106;DHT22;3083;51.508;7.966;2023-11-19T10:00:08;12.10;99.90
6106;DHT22;3083;51.508;7.966;2023-11-19T10:02:36;12.10;99.90
6106;DHT22;3083;51.508;7.966;2023-11-19T10:05:06;12.20;99.90
6106;DHT22;3083;51.508;7.966;2023-11-19T10:07:33;12.20;99.90
6106;DHT22;3083;51.508;7.966;2023-11-19T10:10:00;12.20;99.90
6106;DHT22;3083;51.508;7.966;2023-11-19T10:12:29;12.30;99.90
6106;DHT22;3083;51.508;7.966;2023-11-19T10:14:58;12.30;99.90
6106;DHT22;3083;51.508;7.966;2023-11-19T10:17:28;12.30;99.90
6106;DHT22;3083;51.508;7.966;2023-11-19T10:19:55;12.40;99.90
6106;DHT22;3083;51.508;7.966;2023-11-19T10:22:23;12.40;99.90
6106;DHT22;3083;51.508;7.966;2023-11-19T10:24:50;12.40;99.90
6106;DHT22;3083;51.508;7.966;2023-11-19T10:27:17;12.50;99.90
6106;DHT22;3083;51.508;7.966;2023-11-19T10:29:45;12.50;99.90
6106;DHT22;3083;51.508;7.966;2023-11-19T10:32:14;12.50;99.90
6106;DHT22;3083;51.508;7.966;2023-11-19T10:34:41;12.50;99.90
6106;DHT22;3083;51.508;7.966;2023-11-19T10:37:08;12.50;99.90
6106;DHT22;3083;51.508;7.966;2023-11-19T10:39:54;12.40;99.90
6106;DHT22;3083;51.508;7.966;2023-11-19T10:42:21;12.40;99.90
6106;DHT22;3083;51.508;7.966;2023-11-19T10:44:48;12.40;99.90
6106;DHT22;3083;51.508;7.966;2023-11-19T10:47:19;12.50;99.90
6106;DHT22;3083;51.508;7.966;2023-11-19T10:49:47;12.50;99.90
6106;DHT22;3083;51.508;7.966;2023-11-19T10:52:17;12.60;99.90
6106;DHT22;3083;51.508;7.966;2023-11-19T10:54:49;12.80;99.90
6106;DHT22;3083;51.508;7.966;2023-11-19T10:57:20;13.00;99.90
6106;DHT22;3083;51.508;7.966;2023-11-19T10:59:47;13.10;99.90
6106;DHT22;3083;51.508;7.966;2023-11-19T11:02:20;13.20;99.90
6106;DHT22;3083;51.508;7.966;2023-11-19T11:04:47;13.10;99.90
6106;DHT22;3083;51.508;7.966;2023-11-19T11:07:18;13.10;99.90
6106;DHT22;3083;51.508;7.966;2023-11-19T11:09:47;13.00;99.90
6106;DHT22;3083;51.508;7.966;2023-11-19T11:12:15;13.00;99.90
6106;DHT22;3083;51.508;7.966;2023-11-19T11:14:44;13.00;99.90
6106;DHT22;3083;51.508;7.966;2023-11-19T11:17:15;13.00;99.90
6106;DHT22;3083;51.508;7.966;2023-11-19T11:19:45;12.90;99.90
6106;DHT22;3083;51.508;7.966;2023-11-19T11:22:14;12.80;99.90
6106;DHT22;3083;51.508;7.966;2023-11-19T11:25:11;12.80;99.90
6106;DHT22;3083;51.508;7.966;2023-11-19T11:28:01;12.80;99.90
6106;DHT22;3083;51.508;7.966;2023-11-19T11:30:37;12.70;99.90
6106;DHT22;3083;51.508;7.966;2023-11-19T11:33:20;12.70;99.90
6106;DHT22;3083;51.508;7.966;2023-11-19T11:35:58;12.80;99.90
6106;DHT22;3083;51.508;7.966;2023-11-19T11:38:36;12.80;99.90
6106;DHT22;3083;51.508;7.966;2023-11-19T11:41:18;12.80;99.90
6106;DHT22;3083;51.508;7.966;2023-11-19T11:43:46;12.80;99.90
6106;DHT22;3083;51.508;7.966;2023-11-19T11:49:25;12.80;99.90
6106;DHT22;3083;51.508;7.966;2023-11-19T11:52:00;12.80;99.90
6106;DHT22;3083;51.508;7.966;2023-11-19T11:54:29;12.70;99.90
6106;DHT22;3083;51.508;7.966;2023-11-19T11:57:10;12.60;99.90
6106;DHT22;3083;51.508;7.966;2023-11-19T11:59:46;12.50;99.90
6106;DHT22;3083;51.508;7.966;2023-11-19T12:02:14;12.40;99.90
6106;DHT22;3083;51.508;7.966;2023-11-19T12:04:42;12.30;99.90
6106;DHT22;3083;51.508;7.966;2023-11-19T12:07:15;12.30;99.90
6106;DHT22;3083;51.508;7.966;2023-11-19T12:09:42;12.20;99.90
6106;DHT22;3083;51.508;7.966;2023-11-19T12:12:22;12.20;99.90
6106;DHT22;3083;51.508;7.966;2023-11-19T12:15:06;12.20;99.90
6106;DHT22;3083;51.508;7.966;2023-11-19T12:17:42;12.30;99.90
6106;DHT22;3083;51.508;7.966;2023-11-19T12:20:11;12.30;99.90
6106;DHT22;3083;51.508;7.966;2023-11-19T12:22:40;12.40;99.90
6106;DHT22;3083;51.508;7.966;2023-11-19T12:25:08;12.50;99.90
6106;DHT22;3083;51.508;7.966;2023-11-19T12:27:35;12.60;99.90
6106;DHT22;3083;51.508;7.966;2023-11-19T12:30:03;12.70;99.90
6106;DHT22;3083;51.508;7.966;2023-11-19T12:32:48;12.80;99.90
6106;DHT22;3083;51.508;7.966;2023-11-19T12:35:15;13.00;99.90
6106;DHT22;3083;51.508;7.966;2023-11-19T12:37:44;13.20;99.90
6106;DHT22;3083;51.508;7.966;2023-11-19T12:40:15;13.30;99.90
6106;DHT22;3083;51.508;7.966;2023-11-19T12:42:43;13.30;99.90
6106;DHT22;3083;51.508;7.966;2023-11-19T12:45:10;13.30;99.90
6106;DHT22;3083;51.508;7.966;2023-11-19T12:47:38;13.20;99.90
6106;DHT22;3083;51.508;7.966;2023-11-19T12:50:06;13.20;99.90
6106;DHT22;3083;51.508;7.966;2023-11-19T12:52:33;13.20;99.90
6106;DHT22;3083;51.508;7.966;2023-11-19T12:55:02;13.10;99.90
6106;DHT22;3083;51.508;7.966;2023-11-19T12:57:39;13.00;99.90
6106;DHT22;3083;51.508;7.966;2023-11-19T13:00:07;13.00;99.90
6106;DHT22;3083;51.508;7.966;2023-11-19T13:02:46;12.90;99.90
6106;DHT22;3083;51.508;7.966;2023-11-19T13:05:23;12.90;99.90
6106;DHT22;3083;51.508;7.966;2023-11-19T13:07:51;12.90;99.90
6106;DHT22;3083;51.508;7.966;2023-11-19T13:10:25;12.90;99.90
6106;DHT22;3083;51.508;7.966;2023-11-19T13:13:05;12.90;99.90
6106;DHT22;3083;51.508;7.966;2023-11-19T13:15:34;12.80;99.90
6106;DHT22;3083;51.508;7.966;2023-11-19T13:18:01;12.80;99.90
6106;DHT22;3083;51.508;7.966;2023-11-19T13:20:28;12.80;99.90
6106;DHT22;3083;51.508;7.966;2023-11-19T13:22:56;12.70;99.90
6106;DHT22;3083;51.508;7.966;2023-11-19T13:25:29;12.70;99.90
6106;DHT22;3083;51.508;7.966;2023-11-19T13:27:57;12.70;99.90
6106;DHT22;3083;51.508;7.966;2023-11-19T13:30:24;12.80;99.90
6106;DHT22;3083;51.508;7.966;2023-11-19T13:32:52;12.80;99.90
6106;DHT22;3083;51.508;7.966;2023-11-19T13:35:20;12.80;99.90
6106;DHT22;3083;51.508;7.966;2023-11-19T13:37:47;12.80;99.90
6106;DHT22;3083;51.508;7.966;2023-11-19T13:40:15;12.80;99.90
6106;DHT22;3083;51.508;7.966;2023-11-19T13:42:43;12.70;99.90
6106;DHT22;3083;51.508;7.966;2023-11-19T13:45:11;12.70;99.90
6106;DHT22;3083;51.508;7.966;2023-11-19T13:47:38;12.60;99.90
6106;DHT22;3083;51.508;7.966;2023-11-19T13:50:09;12.50;99.90
6106;DHT22;3083;51.508;7.966;2023-11-19T13:52:36;12.30;99.90
6106;DHT22;3083;51.508;7.966;2023-11-19T13:55:06;12.20;99.90
6106;DHT22;3083;51.508;7.966;2023-11-19T13:57:34;12.00;99.90
6106;DHT22;3083;51.508;7.966;2023-11-19T14:00:02;11.90;99.90
6106;DHT22;3083;51.508;7.966;2023-11-19T14:02:32;11.90;99.90
6106;DHT22;3083;51.508;7.966;2023-11-19T14:04:59;11.80;99.90
6106;DHT22;3083;51.508;7.966;2023-11-19T14:07:26;11.80;99.90
6106;DHT22;3083;51.508;7.966;2023-11-19T14:09:53;11.70;99.90
6106;DHT22;3083;51.508;7.966;2023-11-19T14:12:20;11.70;99.90
6106;DHT22;3083;51.508;7.966;2023-11-19T14:14:46;11.70;99.90
6106;DHT22;3083;51.508;7.966;2023-11-19T14:17:15;11.70;99.90
6106;DHT22;3083;51.508;7.966;2023-11-19T14:19:42;11.60;99.90
6106;DHT22;3083;51.508;7.966;2023-11-19T14:22:09;11.60;99.90
6106;DHT22;3083;51.508;7.966;2023-11-19T14:24:37;11.60;99.90
6106;DHT22;3083;51.508;7.966;2023-11-19T14:27:04;11.60;99.90
6106;DHT22;3083;51.508;7.966;2023-11-19T14:29:31;11.60;99.90
6106;DHT22;3083;51.508;7.966;2023-11-19T14:31:58;11.60;99.90
6106;DHT22;3083;51.508;7.966;2023-11-19T14:34:26;11.60;99.90
6106;DHT22;3083;51.508;7.966;2023-11-19T14:36:54;11.60;99.90
6106;DHT22;3083;51.508;7.966;2023-11-19T14:39:21;11.70;99.90
6106;DHT22;3083;51.508;7.966;2023-11-19T14:41:48;11.70;99.90
6106;DHT22;3083;51.508;7.966;2023-11-19T14:44:16;11.70;99.90
6106;DHT22;3083;51.508;7.966;2023-11-19T14:46:44;11.70;99.90
6106;DHT22;3083;51.508;7.966;2023-11-19T14:49:11;11.70;99.90
6106;DHT22;3083;51.508;7.966;2023-11-19T14:51:41;11.70;99.90
6106;DHT22;3083;51.508;7.966;2023-11-19T14:54:07;11.70;99.90
6106;DHT22;3083;51.508;7.966;2023-11-19T14:56:34;11.70;99.90
6106;DHT22;3083;51.508;7.966;2023-11-19T14:59:04;11.70;99.90
6106;DHT22;3083;51.508;7.966;2023-11-19T15:01:31;11.70;99.90
6106;DHT22;3083;51.508;7.966;2023-11-19T15:03:57;11.60;99.90
6106;DHT22;3083;51.508;7.966;2023-11-19T15:06:24;11.60;99.90
6106;DHT22;3083;51.508;7.966;2023-11-19T15:08:54;11.60;99.90
6106;DHT22;3083;51.508;7.966;2023-11-19T15:11:21;11.60;99.90
6106;DHT22;3083;51.508;7.966;2023-11-19T15:13:48;11.60;99.90
6106;DHT22;3083;51.508;7.966;2023-11-19T15:16:15;11.50;99.90
6106;DHT22;3083;51.508;7.966;2023-11-19T15:18:48;11.50;99.90
6106;DHT22;3083;51.508;7.966;2023-11-19T15:21:15;11.50;99.90
6106;DHT22;3083;51.508;7.966;2023-11-19T15:23:42;11.40;99.90
6106;DHT22;3083;51.508;7.966;2023-11-19T15:26:10;11.40;99.90
6106;DHT22;3083;51.508;7.966;2023-11-19T15:28:37;11.40;99.90
6106;DHT22;3083;51.508;7.966;2023-11-19T15:31:04;11.30;99.90
6106;DHT22;3083;51.508;7.966;2023-11-19T15:33:31;11.30;99.90
6106;DHT22;3083;51.508;7.966;2023-11-19T15:35:58;11.30;99.90
6106;DHT22;3083;51.508;7.966;2023-11-19T15:38:27;11.20;99.90
6106;DHT22;3083;51.508;7.966;2023-11-19T15:40:55;11.20;99.90
6106;DHT22;3083;51.508;7.966;2023-11-19T15:43:23;11.10;99.90
6106;DHT22;3083;51.508;7.966;2023-11-19T15:45:50;11.10;99.90
6106;DHT22;3083;51.508;7.966;2023-11-19T15:48:16;11.10;99.90
6106;DHT22;3083;51.508;7.966;2023-11-19T15:50:46;11.00;99.90
6106;DHT22;3083;51.508;7.966;2023-11-19T15:53:13;11.00;99.90
6106;DHT22;3083;51.508;7.966;2023-11-19T15:55:41;11.00;99.90
6106;DHT22;3083;51.508;7.966;2023-11-19T15:58:08;10.90;99.90
6106;DHT22;3083;51.508;7.966;2023-11-19T16:00:36;10.90;99.90
6106;DHT22;3083;51.508;7.966;2023-11-19T16:03:03;10.90;99.90
6106;DHT22;3083;51.508;7.966;2023-11-19T16:05:30;10.90;99.90
6106;DHT22;3083;51.508;7.966;2023-11-19T16:07:57;10.90;99.90
6106;DHT22;3083;51.508;7.966;2023-11-19T16:10:24;11.00;99.90
6106;DHT22;3083;51.508;7.966;2023-11-19T16:12:51;11.00;99.90